Providence, Rhode Island
Current Conditions -  °F | °C
As of 11:51 PM on Monday 22 Dec 2014 (Local Time) from KPVD Reporting Station
Overcast Overcast  
Wind Chill:   Ceiling: 4900
Heat Index:   Visibility: 10mi
Dew Point:   Wind: 6mph
Humidity: 89%   Direction: 30°NNE
Pressure: 30.27"   Gusts: NA
Location:  41.82°N, 71.41°W
Report Text: KPVD 230451Z 03005KT 10SM OVC049 04/03 A3027 RMK AO2 SLP249 LAST AUGMENTED T00440028 400670006
Loading
Personal Weather Stations






























Interactive Weather Map New forecast layout! Learn more

10-Day Weather Forecast

Advertisements
Track Severe Weather on mobile